sensor_id;sensor_type;location;lat;lon;timestamp;temperature;humidity
20929;DHT22;21895;47.072;15.132;2022-10-16T00:01:34;11.10;99.90
20929;DHT22;21895;47.072;15.132;2022-10-16T00:04:01;11.10;99.90
20929;DHT22;21895;47.072;15.132;2022-10-16T00:06:29;11.10;99.90
20929;DHT22;21895;47.072;15.132;2022-10-16T00:08:56;11.00;99.90
20929;DHT22;21895;47.072;15.132;2022-10-16T00:11:29;11.00;99.90
20929;DHT22;21895;47.072;15.132;2022-10-16T00:14:00;10.80;99.90
20929;DHT22;21895;47.072;15.132;2022-10-16T00:16:28;10.80;99.90
20929;DHT22;21895;47.072;15.132;2022-10-16T00:18:55;10.80;99.90
20929;DHT22;21895;47.072;15.132;2022-10-16T00:21:25;10.90;99.90
20929;DHT22;21895;47.072;15.132;2022-10-16T00:23:55;10.70;99.90
20929;DHT22;21895;47.072;15.132;2022-10-16T00:26:32;10.70;99.90
20929;DHT22;21895;47.072;15.132;2022-10-16T00:29:00;10.60;99.90
20929;DHT22;21895;47.072;15.132;2022-10-16T00:31:27;10.60;99.90
20929;DHT22;21895;47.072;15.132;2022-10-16T00:33:53;10.70;99.90
20929;DHT22;21895;47.072;15.132;2022-10-16T00:36:22;10.90;99.90
20929;DHT22;21895;47.072;15.132;2022-10-16T00:38:53;10.90;99.90
20929;DHT22;21895;47.072;15.132;2022-10-16T00:41:24;10.90;99.90
20929;DHT22;21895;47.072;15.132;2022-10-16T00:43:56;10.90;99.90
20929;DHT22;21895;47.072;15.132;2022-10-16T00:46:45;10.80;99.90
20929;DHT22;21895;47.072;15.132;2022-10-16T00:49:16;10.80;99.90
20929;DHT22;21895;47.072;15.132;2022-10-16T00:51:49;10.80;99.90
20929;DHT22;21895;47.072;15.132;2022-10-16T00:54:29;10.80;99.90
20929;DHT22;21895;47.072;15.132;2022-10-16T00:57:01;10.80;99.90
20929;DHT22;21895;47.072;15.132;2022-10-16T00:59:37;10.80;99.90
20929;DHT22;21895;47.072;15.132;2022-10-16T01:02:09;10.80;99.90
20929;DHT22;21895;47.072;15.132;2022-10-16T01:04:44;10.90;99.90
20929;DHT22;21895;47.072;15.132;2022-10-16T01:11:16;10.70;99.90
20929;DHT22;21895;47.072;15.132;2022-10-16T01:13:53;10.90;99.90
20929;DHT22;21895;47.072;15.132;2022-10-16T01:16:40;11.10;99.90
20929;DHT22;21895;47.072;15.132;2022-10-16T01:19:33;11.10;99.90
20929;DHT22;21895;47.072;15.132;2022-10-16T01:22:41;11.10;99.90
20929;DHT22;21895;47.072;15.132;2022-10-16T01:30:52;11.10;99.90
20929;DHT22;21895;47.072;15.132;2022-10-16T01:33:28;11.20;99.90
20929;DHT22;21895;47.072;15.132;2022-10-16T01:36:07;11.30;99.90
20929;DHT22;21895;47.072;15.132;2022-10-16T01:38:39;11.30;99.90
20929;DHT22;21895;47.072;15.132;2022-10-16T01:41:18;11.30;99.90
20929;DHT22;21895;47.072;15.132;2022-10-16T01:44:05;11.40;99.90
20929;DHT22;21895;47.072;15.132;2022-10-16T01:46:39;11.30;99.90
20929;DHT22;21895;47.072;15.132;2022-10-16T01:49:09;11.30;99.90
20929;DHT22;21895;47.072;15.132;2022-10-16T01:51:37;11.30;99.90
20929;DHT22;21895;47.072;15.132;2022-10-16T01:54:08;11.20;99.90
20929;DHT22;21895;47.072;15.132;2022-10-16T01:56:36;11.10;99.90
20929;DHT22;21895;47.072;15.132;2022-10-16T01:59:09;11.10;99.90
20929;DHT22;21895;47.072;15.132;2022-10-16T02:01:42;11.20;99.90
20929;DHT22;21895;47.072;15.132;2022-10-16T02:04:32;11.20;99.90
20929;DHT22;21895;47.072;15.132;2022-10-16T02:07:01;11.10;99.90
20929;DHT22;21895;47.072;15.132;2022-10-16T02:09:30;11.10;99.90
20929;DHT22;21895;47.072;15.132;2022-10-16T02:12:03;11.10;99.90
20929;DHT22;21895;47.072;15.132;2022-10-16T02:14:39;11.00;99.90
20929;DHT22;21895;47.072;15.132;2022-10-16T02:17:16;10.90;99.90
20929;DHT22;21895;47.072;15.132;2022-10-16T02:19:45;10.90;99.90
20929;DHT22;21895;47.072;15.132;2022-10-16T02:22:48;10.90;99.90
20929;DHT22;21895;47.072;15.132;2022-10-16T02:25:22;11.10;99.90
20929;DHT22;21895;47.072;15.132;2022-10-16T02:28:10;10.90;99.90
20929;DHT22;21895;47.072;15.132;2022-10-16T02:31:03;11.00;99.90
20929;DHT22;21895;47.072;15.132;2022-10-16T02:33:35;10.90;99.90
20929;DHT22;21895;47.072;15.132;2022-10-16T02:36:04;10.60;99.90
20929;DHT22;21895;47.072;15.132;2022-10-16T02:38:31;10.60;99.90
20929;DHT22;21895;47.072;15.132;2022-10-16T02:40:59;10.60;99.90
20929;DHT22;21895;47.072;15.132;2022-10-16T02:43:26;10.60;99.90
20929;DHT22;21895;47.072;15.132;2022-10-16T02:45:52;10.60;99.90
20929;DHT22;21895;47.072;15.132;2022-10-16T02:48:19;10.60;99.90
20929;DHT22;21895;47.072;15.132;2022-10-16T02:50:45;10.50;99.90
20929;DHT22;21895;47.072;15.132;2022-10-16T02:53:12;10.50;99.90
20929;DHT22;21895;47.072;15.132;2022-10-16T02:55:38;10.50;99.90
20929;DHT22;21895;47.072;15.132;2022-10-16T02:58:05;10.50;99.90
20929;DHT22;21895;47.072;15.132;2022-10-16T03:00:31;10.50;99.90
20929;DHT22;21895;47.072;15.132;2022-10-16T03:02:57;10.60;99.90
20929;DHT22;21895;47.072;15.132;2022-10-16T03:05:24;10.70;99.90
20929;DHT22;21895;47.072;15.132;2022-10-16T03:07:51;10.70;99.90
20929;DHT22;21895;47.072;15.132;2022-10-16T03:10:18;10.70;99.90
20929;DHT22;21895;47.072;15.132;2022-10-16T03:12:44;10.80;99.90
20929;DHT22;21895;47.072;15.132;2022-10-16T03:15:11;10.80;99.90
20929;DHT22;21895;47.072;15.132;2022-10-16T03:17:37;10.90;99.90
20929;DHT22;21895;47.072;15.132;2022-10-16T03:20:04;10.90;99.90
20929;DHT22;21895;47.072;15.132;2022-10-16T03:22:31;10.90;99.90
20929;DHT22;21895;47.072;15.132;2022-10-16T03:24:58;10.90;99.90
20929;DHT22;21895;47.072;15.132;2022-10-16T03:27:24;10.90;99.90
20929;DHT22;21895;47.072;15.132;2022-10-16T03:29:51;10.80;99.90
20929;DHT22;21895;47.072;15.132;2022-10-16T03:32:18;10.90;99.90
20929;DHT22;21895;47.072;15.132;2022-10-16T03:34:45;10.90;99.90
20929;DHT22;21895;47.072;15.132;2022-10-16T03:37:12;10.80;99.90
20929;DHT22;21895;47.072;15.132;2022-10-16T03:39:39;10.70;99.90
20929;DHT22;21895;47.072;15.132;2022-10-16T03:42:05;10.60;99.90
20929;DHT22;21895;47.072;15.132;2022-10-16T03:44:31;10.60;99.90
20929;DHT22;21895;47.072;15.132;2022-10-16T03:46:58;10.50;99.90
20929;DHT22;21895;47.072;15.132;2022-10-16T03:49:24;10.50;99.90
20929;DHT22;21895;47.072;15.132;2022-10-16T03:51:51;10.50;99.90
20929;DHT22;21895;47.072;15.132;2022-10-16T03:54:17;10.40;99.90
20929;DHT22;21895;47.072;15.132;2022-10-16T03:56:44;10.40;99.90
20929;DHT22;21895;47.072;15.132;2022-10-16T03:59:10;10.40;99.90
20929;DHT22;21895;47.072;15.132;2022-10-16T04:01:37;10.40;99.90
20929;DHT22;21895;47.072;15.132;2022-10-16T04:04:03;10.30;99.90
20929;DHT22;21895;47.072;15.132;2022-10-16T04:06:30;10.20;99.90
20929;DHT22;21895;47.072;15.132;2022-10-16T04:08:57;10.30;99.90
20929;DHT22;21895;47.072;15.132;2022-10-16T04:11:23;10.30;99.90
20929;DHT22;21895;47.072;15.132;2022-10-16T04:13:50;10.30;99.90
20929;DHT22;21895;47.072;15.132;2022-10-16T04:16:16;10.30;99.90
20929;DHT22;21895;47.072;15.132;2022-10-16T04:18:43;10.30;99.90
20929;DHT22;21895;47.072;15.132;2022-10-16T04:21:09;10.20;99.90
20929;DHT22;21895;47.072;15.132;2022-10-16T04:23:36;10.20;99.90
20929;DHT22;21895;47.072;15.132;2022-10-16T04:26:02;10.20;99.90
20929;DHT22;21895;47.072;15.132;2022-10-16T04:28:29;10.10;99.90
20929;DHT22;21895;47.072;15.132;2022-10-16T04:30:55;10.20;99.90
20929;DHT22;21895;47.072;15.132;2022-10-16T04:33:22;10.20;99.90
20929;DHT22;21895;47.072;15.132;2022-10-16T04:35:48;10.00;99.90
20929;DHT22;21895;47.072;15.132;2022-10-16T04:38:21;10.10;99.90
20929;DHT22;21895;47.072;15.132;2022-10-16T04:40:48;10.10;99.90
20929;DHT22;21895;47.072;15.132;2022-10-16T04:43:14;10.10;99.90
20929;DHT22;21895;47.072;15.132;2022-10-16T04:45:41;10.10;99.90
20929;DHT22;21895;47.072;15.132;2022-10-16T04:48:07;10.00;99.90
20929;DHT22;21895;47.072;15.132;2022-10-16T04:50:34;10.00;99.90
20929;DHT22;21895;47.072;15.132;2022-10-16T04:53:00;9.90;99.90
20929;DHT22;21895;47.072;15.132;2022-10-16T04:55:27;9.90;99.90
20929;DHT22;21895;47.072;15.132;2022-10-16T04:57:53;9.80;99.90
20929;DHT22;21895;47.072;15.132;2022-10-16T05:00:20;9.80;99.90
20929;DHT22;21895;47.072;15.132;2022-10-16T05:02:50;9.80;99.90
20929;DHT22;21895;47.072;15.132;2022-10-16T05:05:17;9.70;99.90
20929;DHT22;21895;47.072;15.132;2022-10-16T05:07:46;9.80;99.90
20929;DHT22;21895;47.072;15.132;2022-10-16T05:10:13;9.90;99.90
20929;DHT22;21895;47.072;15.132;2022-10-16T05:12:40;9.90;99.90
20929;DHT22;21895;47.072;15.132;2022-10-16T05:15:07;9.90;99.90
20929;DHT22;21895;47.072;15.132;2022-10-16T05:17:34;10.00;99.90
20929;DHT22;21895;47.072;15.132;2022-10-16T05:20:01;10.00;99.90
20929;DHT22;21895;47.072;15.132;2022-10-16T05:22:29;10.00;99.90
20929;DHT22;21895;47.072;15.132;2022-10-16T05:24:55;10.10;99.90
20929;DHT22;21895;47.072;15.132;2022-10-16T05:27:22;10.10;99.90
20929;DHT22;21895;47.072;15.132;2022-10-16T05:29:49;10.20;99.90
20929;DHT22;21895;47.072;15.132;2022-10-16T05:32:16;10.10;99.90
20929;DHT22;21895;47.072;15.132;2022-10-16T05:34:44;10.10;99.90
20929;DHT22;21895;47.072;15.132;2022-10-16T05:37:11;10.10;99.90
20929;DHT22;21895;47.072;15.132;2022-10-16T05:39:38;10.10;99.90
20929;DHT22;21895;47.072;15.132;2022-10-16T05:42:05;10.10;99.90
20929;DHT22;21895;47.072;15.132;2022-10-16T05:44:32;10.20;99.90
20929;DHT22;21895;47.072;15.132;2022-10-16T05:46:59;10.20;99.90
20929;DHT22;21895;47.072;15.132;2022-10-16T05:49:25;10.00;99.90
20929;DHT22;21895;47.072;15.132;2022-10-16T05:51:52;10.10;99.90
20929;DHT22;21895;47.072;15.132;2022-10-16T05:54:18;10.20;99.90
20929;DHT22;21895;47.072;15.132;2022-10-16T05:56:45;10.20;99.90
20929;DHT22;21895;47.072;15.132;2022-10-16T05:59:11;10.10;99.90
20929;DHT22;21895;47.072;15.132;2022-10-16T06:01:38;10.10;99.90
20929;DHT22;21895;47.072;15.132;2022-10-16T06:04:04;10.10;99.90
20929;DHT22;21895;47.072;15.132;2022-10-16T06:06:31;10.10;99.90
20929;DHT22;21895;47.072;15.132;2022-10-16T06:08:58;10.20;99.90
20929;DHT22;21895;47.072;15.132;2022-10-16T06:11:28;10.20;99.90
20929;DHT22;21895;47.072;15.132;2022-10-16T06:13:57;10.00;99.90
20929;DHT22;21895;47.072;15.132;2022-10-16T06:16:28;10.00;99.90
20929;DHT22;21895;47.072;15.132;2022-10-16T06:18:55;10.20;99.90
20929;DHT22;21895;47.072;15.132;2022-10-16T06:21:24;10.30;99.90
20929;DHT22;21895;47.072;15.132;2022-10-16T06:23:53;10.40;99.90
20929;DHT22;21895;47.072;15.132;2022-10-16T06:26:22;10.40;99.90
20929;DHT22;21895;47.072;15.132;2022-10-16T06:28:49;10.50;99.90
20929;DHT22;21895;47.072;15.132;2022-10-16T06:31:17;10.60;99.90
20929;DHT22;21895;47.072;15.132;2022-10-16T06:33:43;10.70;99.90
20929;DHT22;21895;47.072;15.132;2022-10-16T06:36:13;10.70;99.90
20929;DHT22;21895;47.072;15.132;2022-10-16T06:38:42;10.80;99.90
20929;DHT22;21895;47.072;15.132;2022-10-16T06:41:12;10.80;99.90
20929;DHT22;21895;47.072;15.132;2022-10-16T06:43:41;11.10;99.90
20929;DHT22;21895;47.072;15.132;2022-10-16T06:46:09;11.10;99.90
20929;DHT22;21895;47.072;15.132;2022-10-16T06:48:37;11.10;99.90
20929;DHT22;21895;47.072;15.132;2022-10-16T06:51:06;11.20;99.90
20929;DHT22;21895;47.072;15.132;2022-10-16T06:53:37;11.40;99.90
20929;DHT22;21895;47.072;15.132;2022-10-16T06:56:28;11.40;99.90
20929;DHT22;21895;47.072;15.132;2022-10-16T06:58:56;11.50;99.90
20929;DHT22;21895;47.072;15.132;2022-10-16T07:01:23;11.70;99.90
20929;DHT22;21895;47.072;15.132;2022-10-16T07:03:51;11.90;99.90
20929;DHT22;21895;47.072;15.132;2022-10-16T07:06:20;11.90;99.90
20929;DHT22;21895;47.072;15.132;2022-10-16T07:08:48;11.80;99.90
20929;DHT22;21895;47.072;15.132;2022-10-16T07:11:18;11.80;99.90
20929;DHT22;21895;47.072;15.132;2022-10-16T07:13:46;11.90;99.90
20929;DHT22;21895;47.072;15.132;2022-10-16T07:16:24;12.00;99.90
20929;DHT22;21895;47.072;15.132;2022-10-16T07:18:57;12.10;99.90
20929;DHT22;21895;47.072;15.132;2022-10-16T07:21:32;12.20;99.90
20929;DHT22;21895;47.072;15.132;2022-10-16T07:24:01;12.40;99.90
20929;DHT22;21895;47.072;15.132;2022-10-16T07:26:30;12.50;99.90
20929;DHT22;21895;47.072;15.132;2022-10-16T07:28:59;12.60;99.90
20929;DHT22;21895;47.072;15.132;2022-10-16T07:31:27;12.80;99.90
20929;DHT22;21895;47.072;15.132;2022-10-16T07:33:54;12.90;99.90
20929;DHT22;21895;47.072;15.132;2022-10-16T07:36:21;13.00;99.90
20929;DHT22;21895;47.072;15.132;2022-10-16T07:38:47;13.20;99.90
20929;DHT22;21895;47.072;15.132;2022-10-16T07:41:16;13.30;99.90
20929;DHT22;21895;47.072;15.132;2022-10-16T07:43:47;13.40;99.90
20929;DHT22;21895;47.072;15.132;2022-10-16T07:46:15;13.40;99.90
20929;DHT22;21895;47.072;15.132;2022-10-16T07:48:42;13.60;99.90
20929;DHT22;21895;47.072;15.132;2022-10-16T07:51:21;14.00;99.90
20929;DHT22;21895;47.072;15.132;2022-10-16T07:53:50;14.10;99.90
20929;DHT22;21895;47.072;15.132;2022-10-16T07:56:18;14.00;99.90
20929;DHT22;21895;47.072;15.132;2022-10-16T07:58:45;14.20;99.90
20929;DHT22;21895;47.072;15.132;2022-10-16T08:01:13;14.40;99.90
20929;DHT22;21895;47.072;15.132;2022-10-16T08:03:47;14.40;99.90
20929;DHT22;21895;47.072;15.132;2022-10-16T08:06:15;14.40;99.90
20929;DHT22;21895;47.072;15.132;2022-10-16T08:08:42;14.70;99.90
20929;DHT22;21895;47.072;15.132;2022-10-16T08:11:09;14.90;99.90
20929;DHT22;21895;47.072;15.132;2022-10-16T08:13:36;15.10;99.90
20929;DHT22;21895;47.072;15.132;2022-10-16T08:16:04;15.10;99.90
20929;DHT22;21895;47.072;15.132;2022-10-16T08:18:35;15.20;99.90
20929;DHT22;21895;47.072;15.132;2022-10-16T08:21:03;15.40;99.90
20929;DHT22;21895;47.072;15.132;2022-10-16T08:23:30;15.50;99.90
20929;DHT22;21895;47.072;15.132;2022-10-16T08:26:02;15.60;99.90
20929;DHT22;21895;47.072;15.132;2022-10-16T08:28:31;15.80;99.90
20929;DHT22;21895;47.072;15.132;2022-10-16T08:31:08;15.90;99.90
20929;DHT22;21895;47.072;15.132;2022-10-16T08:33:37;16.20;99.90
20929;DHT22;21895;47.072;15.132;2022-10-16T08:36:05;16.30;99.90
20929;DHT22;21895;47.072;15.132;2022-10-16T08:38:33;16.50;99.90
20929;DHT22;21895;47.072;15.132;2022-10-16T08:41:23;16.60;99.90
20929;DHT22;21895;47.072;15.132;2022-10-16T08:44:40;16.70;99.90
20929;DHT22;21895;47.072;15.132;2022-10-16T08:48:09;16.80;99.90
20929;DHT22;21895;47.072;15.132;2022-10-16T08:50:43;16.90;99.90
20929;DHT22;21895;47.072;15.132;2022-10-16T08:53:18;17.00;99.90
20929;DHT22;21895;47.072;15.132;2022-10-16T08:55:54;17.20;99.90
20929;DHT22;21895;47.072;15.132;2022-10-16T08:58:27;17.30;99.90
20929;DHT22;21895;47.072;15.132;2022-10-16T09:01:00;17.40;99.90
20929;DHT22;21895;47.072;15.132;2022-10-16T09:13:23;17.60;99.90
20929;DHT22;21895;47.072;15.132;2022-10-16T09:16:22;18.00;99.90
20929;DHT22;21895;47.072;15.132;2022-10-16T09:21:20;18.10;99.90
20929;DHT22;21895;47.072;15.132;2022-10-16T09:23:50;18.30;99.90
20929;DHT22;21895;47.072;15.132;2022-10-16T09:26:18;18.30;99.90
20929;DHT22;21895;47.072;15.132;2022-10-16T09:28:47;18.50;99.90
20929;DHT22;21895;47.072;15.132;2022-10-16T09:31:22;18.60;99.90
20929;DHT22;21895;47.072;15.132;2022-10-16T09:33:55;18.70;99.90
20929;DHT22;21895;47.072;15.132;2022-10-16T09:36:27;18.70;99.90
20929;DHT22;21895;47.072;15.132;2022-10-16T09:39:05;18.80;99.90
20929;DHT22;21895;47.072;15.132;2022-10-16T09:41:36;18.90;99.90
20929;DHT22;21895;47.072;15.132;2022-10-16T09:44:24;19.10;99.90
20929;DHT22;21895;47.072;15.132;2022-10-16T09:47:05;19.20;99.90
20929;DHT22;21895;47.072;15.132;2022-10-16T09:49:39;19.30;99.90
20929;DHT22;21895;47.072;15.132;2022-10-16T09:52:16;19.20;99.90
20929;DHT22;21895;47.072;15.132;2022-10-16T09:55:00;19.20;99.90
20929;DHT22;21895;47.072;15.132;2022-10-16T09:57:28;19.30;99.90
20929;DHT22;21895;47.072;15.132;2022-10-16T09:59:58;19.50;99.90
20929;DHT22;21895;47.072;15.132;2022-10-16T10:02:34;19.50;99.90
20929;DHT22;21895;47.072;15.132;2022-10-16T10:05:27;19.60;99.90
20929;DHT22;21895;47.072;15.132;2022-10-16T10:07:57;19.60;99.90
20929;DHT22;21895;47.072;15.132;2022-10-16T10:10:27;19.60;99.90
20929;DHT22;21895;47.072;15.132;2022-10-16T10:12:56;19.60;99.90
20929;DHT22;21895;47.072;15.132;2022-10-16T10:15:23;19.70;99.90
20929;DHT22;21895;47.072;15.132;2022-10-16T10:17:55;19.80;99.90
20929;DHT22;21895;47.072;15.132;2022-10-16T10:20:40;19.80;99.90
20929;DHT22;21895;47.072;15.132;2022-10-16T10:23:22;19.90;99.90
20929;DHT22;21895;47.072;15.132;2022-10-16T10:26:24;20.00;99.90
20929;DHT22;21895;47.072;15.132;2022-10-16T10:35:43;20.20;99.90
20929;DHT22;21895;47.072;15.132;2022-10-16T10:39:41;20.40;99.90
20929;DHT22;21895;47.072;15.132;2022-10-16T10:42:36;20.50;99.50
20929;DHT22;21895;47.072;15.132;2022-10-16T10:46:04;20.70;98.50
20929;DHT22;21895;47.072;15.132;2022-10-16T10:49:10;20.70;98.40
20929;DHT22;21895;47.072;15.132;2022-10-16T10:58:59;20.90;98.40
20929;DHT22;21895;47.072;15.132;2022-10-16T11:09:45;20.90;99.00
20929;DHT22;21895;47.072;15.132;2022-10-16T11:14:10;21.10;98.40
20929;DHT22;21895;47.072;15.132;2022-10-16T11:18:33;21.10;98.20
20929;DHT22;21895;47.072;15.132;2022-10-16T11:22:13;20.90;98.70
20929;DHT22;21895;47.072;15.132;2022-10-16T11:25:20;21.00;98.90
20929;DHT22;21895;47.072;15.132;2022-10-16T11:31:00;21.00;98.70
20929;DHT22;21895;47.072;15.132;2022-10-16T11:33:43;21.00;98.70
20929;DHT22;21895;47.072;15.132;2022-10-16T11:36:38;21.10;98.50
20929;DHT22;21895;47.072;15.132;2022-10-16T11:39:26;21.30;98.20
20929;DHT22;21895;47.072;15.132;2022-10-16T11:44:19;21.40;98.00
20929;DHT22;21895;47.072;15.132;2022-10-16T11:55:29;21.20;96.40
20929;DHT22;21895;47.072;15.132;2022-10-16T12:00:40;21.30;97.30
20929;DHT22;21895;47.072;15.132;2022-10-16T12:04:49;21.50;97.20
20929;DHT22;21895;47.072;15.132;2022-10-16T12:07:31;21.70;96.50
20929;DHT22;21895;47.072;15.132;2022-10-16T12:10:27;21.50;96.20
20929;DHT22;21895;47.072;15.132;2022-10-16T12:12:54;21.50;95.80
20929;DHT22;21895;47.072;15.132;2022-10-16T12:15:31;21.50;96.20
20929;DHT22;21895;47.072;15.132;2022-10-16T12:18:25;21.40;96.10
20929;DHT22;21895;47.072;15.132;2022-10-16T12:20:55;21.50;96.20
20929;DHT22;21895;47.072;15.132;2022-10-16T12:23:31;21.40;95.80
20929;DHT22;21895;47.072;15.132;2022-10-16T12:26:28;21.30;95.80
20929;DHT22;21895;47.072;15.132;2022-10-16T12:29:33;21.30;96.30
20929;DHT22;21895;47.072;15.132;2022-10-16T12:35:33;21.40;97.00
20929;DHT22;21895;47.072;15.132;2022-10-16T12:38:19;21.50;96.50
20929;DHT22;21895;47.072;15.132;2022-10-16T12:41:02;21.50;97.10
20929;DHT22;21895;47.072;15.132;2022-10-16T12:43:40;21.50;97.20
20929;DHT22;21895;47.072;15.132;2022-10-16T12:46:53;21.50;97.00
20929;DHT22;21895;47.072;15.132;2022-10-16T12:49:31;21.30;97.60
20929;DHT22;21895;47.072;15.132;2022-10-16T12:52:03;21.20;98.00
20929;DHT22;21895;47.072;15.132;2022-10-16T12:54:39;21.20;97.70
20929;DHT22;21895;47.072;15.132;2022-10-16T13:08:07;21.30;96.90
20929;DHT22;21895;47.072;15.132;2022-10-16T13:15:25;21.30;97.50
20929;DHT22;21895;47.072;15.132;2022-10-16T13:18:27;21.10;97.30
20929;DHT22;21895;47.072;15.132;2022-10-16T13:22:08;21.10;96.70
20929;DHT22;21895;47.072;15.132;2022-10-16T13:28:38;21.20;95.90
20929;DHT22;21895;47.072;15.132;2022-10-16T13:31:22;21.20;95.50
20929;DHT22;21895;47.072;15.132;2022-10-16T13:33:53;21.10;95.90
20929;DHT22;21895;47.072;15.132;2022-10-16T13:36:30;21.00;96.30
20929;DHT22;21895;47.072;15.132;2022-10-16T13:39:15;21.00;96.30
20929;DHT22;21895;47.072;15.132;2022-10-16T13:42:10;21.00;96.40
20929;DHT22;21895;47.072;15.132;2022-10-16T13:44:49;21.00;96.60
20929;DHT22;21895;47.072;15.132;2022-10-16T13:47:26;20.90;96.70
20929;DHT22;21895;47.072;15.132;2022-10-16T13:50:16;20.90;96.10
20929;DHT22;21895;47.072;15.132;2022-10-16T13:52:44;20.90;96.30
20929;DHT22;21895;47.072;15.132;2022-10-16T13:55:16;21.00;96.30
20929;DHT22;21895;47.072;15.132;2022-10-16T13:57:44;21.00;96.80
20929;DHT22;21895;47.072;15.132;2022-10-16T14:00:25;20.80;97.20
20929;DHT22;21895;47.072;15.132;2022-10-16T14:03:04;20.90;96.70
20929;DHT22;21895;47.072;15.132;2022-10-16T14:05:34;20.80;96.90
20929;DHT22;21895;47.072;15.132;2022-10-16T14:08:01;21.00;96.20
20929;DHT22;21895;47.072;15.132;2022-10-16T14:10:30;21.10;96.50
20929;DHT22;21895;47.072;15.132;2022-10-16T14:13:00;20.90;96.30
20929;DHT22;21895;47.072;15.132;2022-10-16T14:15:30;20.80;96.80
20929;DHT22;21895;47.072;15.132;2022-10-16T14:17:59;20.70;96.70
20929;DHT22;21895;47.072;15.132;2022-10-16T14:20:31;20.60;97.00
20929;DHT22;21895;47.072;15.132;2022-10-16T14:23:05;20.50;97.40
20929;DHT22;21895;47.072;15.132;2022-10-16T14:27:00;20.50;97.70
20929;DHT22;21895;47.072;15.132;2022-10-16T14:29:29;20.50;97.60
20929;DHT22;21895;47.072;15.132;2022-10-16T14:31:59;20.40;97.80
20929;DHT22;21895;47.072;15.132;2022-10-16T14:34:34;20.40;97.60
20929;DHT22;21895;47.072;15.132;2022-10-16T14:37:23;20.40;98.20
20929;DHT22;21895;47.072;15.132;2022-10-16T14:39:54;20.30;98.50
20929;DHT22;21895;47.072;15.132;2022-10-16T14:42:24;20.30;98.30
20929;DHT22;21895;47.072;15.132;2022-10-16T14:44:54;20.30;98.30
20929;DHT22;21895;47.072;15.132;2022-10-16T14:47:24;20.20;98.50
20929;DHT22;21895;47.072;15.132;2022-10-16T14:49:53;20.20;98.80
20929;DHT22;21895;47.072;15.132;2022-10-16T14:52:25;20.10;99.10
20929;DHT22;21895;47.072;15.132;2022-10-16T14:54:51;20.10;99.10
20929;DHT22;21895;47.072;15.132;2022-10-16T14:57:24;20.10;99.40
20929;DHT22;21895;47.072;15.132;2022-10-16T14:59:56;20.00;99.70
20929;DHT22;21895;47.072;15.132;2022-10-16T15:02:31;19.90;99.80
20929;DHT22;21895;47.072;15.132;2022-10-16T15:05:18;19.80;99.80
20929;DHT22;21895;47.072;15.132;2022-10-16T15:07:46;19.80;99.90
20929;DHT22;21895;47.072;15.132;2022-10-16T15:10:13;19.70;99.90
20929;DHT22;21895;47.072;15.132;2022-10-16T15:12:40;19.60;99.90
20929;DHT22;21895;47.072;15.132;2022-10-16T15:15:38;19.50;99.90
20929;DHT22;21895;47.072;15.132;2022-10-16T15:18:08;19.50;99.90
20929;DHT22;21895;47.072;15.132;2022-10-16T15:20:36;19.40;99.90
20929;DHT22;21895;47.072;15.132;2022-10-16T15:23:05;19.30;99.90
20929;DHT22;21895;47.072;15.132;2022-10-16T15:25:50;19.30;99.90
20929;DHT22;21895;47.072;15.132;2022-10-16T15:28:20;19.20;99.90
20929;DHT22;21895;47.072;15.132;2022-10-16T15:30:50;19.20;99.90
20929;DHT22;21895;47.072;15.132;2022-10-16T15:33:21;19.20;99.90
20929;DHT22;21895;47.072;15.132;2022-10-16T15:35:51;19.10;99.90
20929;DHT22;21895;47.072;15.132;2022-10-16T15:38:20;18.90;99.90
20929;DHT22;21895;47.072;15.132;2022-10-16T15:40:48;18.70;99.90
20929;DHT22;21895;47.072;15.132;2022-10-16T15:43:15;18.50;99.90
20929;DHT22;21895;47.072;15.132;2022-10-16T15:45:42;18.30;99.90
20929;DHT22;21895;47.072;15.132;2022-10-16T15:48:12;18.10;99.90
20929;DHT22;21895;47.072;15.132;2022-10-16T15:50:40;17.90;99.90
20929;DHT22;21895;47.072;15.132;2022-10-16T15:53:06;17.80;99.90
20929;DHT22;21895;47.072;15.132;2022-10-16T15:55:33;17.70;99.90
20929;DHT22;21895;47.072;15.132;2022-10-16T15:58:03;17.80;99.90
20929;DHT22;21895;47.072;15.132;2022-10-16T16:00:30;17.80;99.90
20929;DHT22;21895;47.072;15.132;2022-10-16T16:02:57;17.80;99.90
20929;DHT22;21895;47.072;15.132;2022-10-16T16:05:23;17.60;99.90
20929;DHT22;21895;47.072;15.132;2022-10-16T16:07:50;17.50;99.90
20929;DHT22;21895;47.072;15.132;2022-10-16T16:10:17;17.50;99.90
20929;DHT22;21895;47.072;15.132;2022-10-16T16:12:46;17.30;99.90
20929;DHT22;21895;47.072;15.132;2022-10-16T16:15:21;17.10;99.90
20929;DHT22;21895;47.072;15.132;2022-10-16T16:17:49;16.90;99.90
20929;DHT22;21895;47.072;15.132;2022-10-16T16:20:16;16.90;99.90
20929;DHT22;21895;47.072;15.132;2022-10-16T16:22:42;16.90;99.90
20929;DHT22;21895;47.072;15.132;2022-10-16T16:25:09;17.10;99.90
20929;DHT22;21895;47.072;15.132;2022-10-16T16:27:35;17.00;99.90
20929;DHT22;21895;47.072;15.132;2022-10-16T16:30:06;16.70;99.90
20929;DHT22;21895;47.072;15.132;2022-10-16T16:32:34;16.60;99.90
20929;DHT22;21895;47.072;15.132;2022-10-16T16:35:02;16.30;99.90
20929;DHT22;21895;47.072;15.132;2022-10-16T16:37:29;16.20;99.90
20929;DHT22;21895;47.072;15.132;2022-10-16T16:39:56;16.10;99.90
20929;DHT22;21895;47.072;15.132;2022-10-16T16:42:25;16.20;99.90
20929;DHT22;21895;47.072;15.132;2022-10-16T16:44:53;16.10;99.90
20929;DHT22;21895;47.072;15.132;2022-10-16T16:47:20;16.00;99.90
20929;DHT22;21895;47.072;15.132;2022-10-16T16:49:46;15.80;99.90
20929;DHT22;21895;47.072;15.132;2022-10-16T16:52:13;15.70;99.90
20929;DHT22;21895;47.072;15.132;2022-10-16T16:54:40;15.60;99.90
20929;DHT22;21895;47.072;15.132;2022-10-16T16:57:06;15.60;99.90
20929;DHT22;21895;47.072;15.132;2022-10-16T16:59:33;15.60;99.90
20929;DHT22;21895;47.072;15.132;2022-10-16T17:02:00;15.30;99.90
20929;DHT22;21895;47.072;15.132;2022-10-16T17:04:26;15.10;99.90
20929;DHT22;21895;47.072;15.132;2022-10-16T17:06:54;15.00;99.90
20929;DHT22;21895;47.072;15.132;2022-10-16T17:09:21;14.80;99.90
20929;DHT22;21895;47.072;15.132;2022-10-16T17:11:48;14.70;99.90
20929;DHT22;21895;47.072;15.132;2022-10-16T17:14:15;14.70;99.90
20929;DHT22;21895;47.072;15.132;2022-10-16T17:16:41;14.60;99.90
20929;DHT22;21895;47.072;15.132;2022-10-16T17:19:15;14.50;99.90
20929;DHT22;21895;47.072;15.132;2022-10-16T17:21:43;14.50;99.90
20929;DHT22;21895;47.072;15.132;2022-10-16T17:24:10;14.70;99.90